Time;durP1;ratioP1;P1;durP2;ratioP2;P2;SDS_P1;SDS_P2;PMS_P1;PMS_P2;Temp;Humidity;BMP_temperature;BMP_pressure;BME280_temperature;BME280_humidity;BME280_pressure;Samples;Min_cycle;Max_cycle;Signal;HPM_P1;HPM_P2
2022/01/10 00:01:56;;;;;;;23.52;17.13;;;;;;;10.30;68.70;100215.13;4946107;28;104067;-49
2022/01/10 00:04:24;;;;;;;24.48;17.35;;;;;;;10.30;69.18;100208.88;4951829;28;102027;-46
2022/01/10 00:06:51;;;;;;;25.65;18.50;;;;;;;10.29;68.97;100221.66;4951598;28;102396;-45
2022/01/10 00:09:18;;;;;;;25.48;17.88;;;;;;;10.30;68.96;100220.56;4959768;28;102586;-48
2022/01/10 00:11:44;;;;;;;25.23;17.35;;;;;;;10.30;69.31;100219.75;4958373;28;103717;-47
2022/01/10 00:14:10;;;;;;;26.20;17.95;;;;;;;10.30;69.46;100220.56;4958662;28;102206;-47
2022/01/10 00:16:39;;;;;;;29.23;18.83;;;;;;;10.31;69.43;100210.50;4957480;28;102246;-49
2022/01/10 00:19:06;;;;;;;25.92;18.10;;;;;;;10.29;69.20;100212.69;4947951;28;102505;-48
2022/01/10 00:21:35;;;;;;;26.02;17.33;;;;;;;10.30;69.12;100217.84;4938729;28;103885;-48
2022/01/10 00:24:02;;;;;;;26.77;18.30;;;;;;;10.30;69.19;100230.63;4937915;28;102195;-49
2022/01/10 00:26:28;;;;;;;28.98;18.90;;;;;;;10.29;69.31;100218.94;4929180;28;102263;-47
2022/01/10 00:28:54;;;;;;;25.95;17.77;;;;;;;10.30;69.51;100226.00;4938825;28;102251;-49
2022/01/10 00:31:21;;;;;;;24.50;17.48;;;;;;;10.30;69.14;100239.59;4938668;28;103995;-47
2022/01/10 00:33:47;;;;;;;22.20;16.08;;;;;;;10.29;68.86;100224.38;4936332;28;102281;-48
2022/01/10 00:36:14;;;;;;;27.38;18.30;;;;;;;10.31;69.51;100230.38;4939006;28;101971;-47
2022/01/10 00:38:42;;;;;;;23.20;17.65;;;;;;;10.30;69.34;100214.31;4939794;28;102218;-49
2022/01/10 00:41:10;;;;;;;24.58;17.60;;;;;;;10.30;69.52;100215.13;4937777;28;103956;-48
2022/01/10 00:43:40;;;;;;;24.88;17.02;;;;;;;10.31;68.80;100208.59;4938311;28;102163;-48
2022/01/10 00:46:07;;;;;;;24.65;17.45;;;;;;;10.30;69.36;100204.25;4935253;28;102283;-49
2022/01/10 00:48:33;;;;;;;24.27;17.83;;;;;;;10.30;68.81;100206.97;4918952;28;102269;-48
2022/01/10 00:51:00;;;;;;;23.20;16.70;;;;;;;10.31;68.88;100216.78;4959490;28;103931;-48
2022/01/10 00:53:26;;;;;;;25.08;18.02;;;;;;;10.30;69.36;100204.25;4939069;28;102334;-49
2022/01/10 00:55:54;;;;;;;25.25;17.98;;;;;;;10.31;69.38;100211.31;4939480;28;102293;-48
2022/01/10 00:58:20;;;;;;;27.15;18.17;;;;;;;10.30;69.07;100203.44;4940375;28;102279;-47
2022/01/10 01:00:47;;;;;;;26.13;17.45;;;;;;;10.31;69.58;100210.50;4934871;28;103888;-48
2022/01/10 01:03:13;;;;;;;26.27;17.95;;;;;;;10.31;69.20;100215.94;4931485;28;102082;-47
2022/01/10 01:05:42;;;;;;;26.00;17.50;;;;;;;10.31;69.35;100215.94;4937718;28;102291;-48
2022/01/10 01:08:11;;;;;;;26.45;18.15;;;;;;;10.30;69.45;100220.56;4937320;28;102569;-46
2022/01/10 01:11:10;;;;;;;28.23;17.33;;;;;;;10.30;69.49;100217.84;4936342;28;103898;-48
2022/01/10 01:13:50;;;;;;;24.30;17.45;;;;;;;10.30;69.45;100215.13;4955857;28;102552;-48
2022/01/10 01:16:29;;;;;;;24.73;16.80;;;;;;;10.30;69.16;100215.13;4930483;28;102381;-45
2022/01/10 01:20:03;;;;;;;23.27;16.25;;;;;;;10.31;69.58;100216.78;4945061;28;102604;-49
2022/01/10 01:24:28;;;;;;;22.92;16.63;;;;;;;10.30;69.44;100223.28;4921587;28;102239;-50
2022/01/10 01:26:55;;;;;;;24.92;17.20;;;;;;;10.31;69.52;100227.66;4929526;28;102260;-49
2022/01/10 01:29:24;;;;;;;23.65;17.38;;;;;;;10.32;69.57;100225.75;4941765;28;102542;-48
2022/01/10 01:31:52;;;;;;;23.50;17.25;;;;;;;10.32;69.73;100239.34;4950214;28;104007;-48
2022/01/10 01:34:20;;;;;;;22.08;16.25;;;;;;;10.31;69.04;100241.25;4947263;28;102116;-48
2022/01/10 01:36:51;;;;;;;24.47;16.80;;;;;;;10.30;69.72;100242.31;4942755;28;102177;-48
2022/01/10 01:39:21;;;;;;;24.00;16.92;;;;;;;10.30;69.43;100242.31;4959325;28;102240;-47
2022/01/10 01:41:48;;;;;;;22.73;16.65;;;;;;;10.30;68.96;100236.88;4944754;28;104013;-48
2022/01/10 01:44:15;;;;;;;23.02;16.65;;;;;;;10.31;69.54;100240.41;4955718;28;102467;-47
2022/01/10 01:46:44;;;;;;;24.05;16.63;;;;;;;10.30;69.14;100242.31;4940154;28;102168;-46
2022/01/10 01:49:12;;;;;;;23.17;16.17;;;;;;;10.30;69.09;100242.31;4954251;28;102164;-48
2022/01/10 01:51:39;;;;;;;22.15;16.42;;;;;;;10.30;69.35;100236.88;4955626;28;103957;-47
2022/01/10 01:54:06;;;;;;;22.15;16.33;;;;;;;10.30;69.66;100236.88;4940242;28;102224;-48
2022/01/10 01:56:34;;;;;;;25.08;16.13;;;;;;;10.30;69.56;100242.31;4924454;28;102279;-47
2022/01/10 01:59:01;;;;;;;21.42;15.88;;;;;;;10.30;69.78;100242.31;4938570;28;102172;-48
2022/01/10 02:01:28;;;;;;;22.33;16.08;;;;;;;10.30;69.26;100241.50;4937060;28;103957;-47
2022/01/10 02:03:56;;;;;;;22.23;15.98;;;;;;;10.28;69.31;100239.09;4937631;28;102644;-48
2022/01/10 02:06:22;;;;;;;22.00;16.23;;;;;;;10.30;69.78;100242.31;4949350;28;102582;-46
2022/01/10 02:08:48;;;;;;;20.83;15.27;;;;;;;10.30;69.24;100253.19;4936759;28;102480;-47
2022/01/10 02:11:18;;;;;;;20.35;14.88;;;;;;;10.29;69.32;100240.69;4936120;28;103946;-47
2022/01/10 02:13:45;;;;;;;20.27;14.93;;;;;;;10.30;69.33;100250.47;4937750;28;102280;-48
2022/01/10 02:16:17;;;;;;;21.50;15.73;;;;;;;10.30;69.79;100250.47;4965667;28;102274;-48
2022/01/10 02:18:44;;;;;;;21.08;15.07;;;;;;;10.31;69.23;100248.56;4957088;28;102007;-49
2022/01/10 02:21:14;;;;;;;19.50;14.65;;;;;;;10.29;69.27;100246.13;4956782;28;103922;-48
2022/01/10 02:23:42;;;;;;;20.70;14.48;;;;;;;10.30;69.78;100247.75;4953683;28;102222;-49
2022/01/10 02:26:08;;;;;;;18.25;14.38;;;;;;;10.30;69.40;100252.38;4936009;28;102429;-48
2022/01/10 02:28:35;;;;;;;21.17;14.45;;;;;;;10.29;69.34;100246.13;4936812;28;102189;-48
2022/01/10 02:31:02;;;;;;;19.00;13.88;;;;;;;10.30;69.34;100246.94;4936143;28;104118;-48
2022/01/10 02:33:30;;;;;;;18.60;13.70;;;;;;;10.29;69.66;100254.31;4937070;28;102251;-48
2022/01/10 02:38:48;;;;;;;19.05;14.10;;;;;;;10.30;69.03;100252.38;4945350;28;102877;-47
2022/01/10 02:41:19;;;;;;;18.38;13.65;;;;;;;10.29;69.66;100243.41;4934277;28;103895;-49
2022/01/10 02:43:46;;;;;;;19.17;14.00;;;;;;;10.30;69.90;100250.47;4937004;28;102152;-49
2022/01/10 02:46:12;;;;;;;19.92;14.40;;;;;;;10.29;69.50;100251.59;4935251;28;103118;-48
2022/01/10 02:48:40;;;;;;;18.45;14.05;;;;;;;10.29;69.64;100251.59;4936334;28;102610;-49
2022/01/10 02:51:06;;;;;;;18.45;13.77;;;;;;;10.30;69.85;100257.81;4931065;28;103968;-48
2022/01/10 02:53:32;;;;;;;17.33;12.45;;;;;;;10.29;69.21;100265.19;4927413;28;102063;-48
2022/01/10 02:56:00;;;;;;;16.13;12.23;;;;;;;10.30;69.66;100264.06;4936085;28;102202;-48
2022/01/10 02:58:27;;;;;;;17.60;13.02;;;;;;;10.29;69.01;100262.47;4937699;28;102270;-48
2022/01/10 03:00:53;;;;;;;17.85;13.18;;;;;;;10.29;69.45;100262.47;4950987;28;104051;-48
2022/01/10 03:03:20;;;;;;;18.92;13.65;;;;;;;10.29;69.87;100267.91;4964382;28;102249;-49
2022/01/10 03:05:46;;;;;;;18.65;13.07;;;;;;;10.28;69.12;100273.63;4954733;28;102172;-46
2022/01/10 03:08:12;;;;;;;20.85;13.85;;;;;;;10.29;69.87;100267.91;4956521;28;102338;-47
2022/01/10 03:10:39;;;;;;;17.10;12.38;;;;;;;10.29;69.48;100267.91;4945942;28;103743;-48
2022/01/10 03:13:06;;;;;;;17.70;13.15;;;;;;;10.30;69.52;100274.97;4934840;28;102809;-49
2022/01/10 03:15:33;;;;;;;18.00;12.48;;;;;;;10.29;69.03;100283.41;4947708;28;102402;-48
2022/01/10 03:17:59;;;;;;;18.17;13.20;;;;;;;10.29;69.63;100283.41;4956704;28;102168;-48
2022/01/10 03:20:26;;;;;;;16.30;12.27;;;;;;;10.29;69.29;100283.41;4954321;28;104032;-48
2022/01/10 03:22:53;;;;;;;16.60;12.82;;;;;;;10.29;69.31;100280.69;4953092;28;102156;-49
2022/01/10 03:25:19;;;;;;;17.08;12.38;;;;;;;10.29;69.22;100283.41;4937471;28;102129;-48
2022/01/10 03:27:46;;;;;;;17.75;12.93;;;;;;;10.29;68.97;100300.53;4932371;28;102163;-49
2022/01/10 03:30:15;;;;;;;15.48;12.32;;;;;;;10.29;69.34;100297.81;4940523;28;103889;-47
2022/01/10 03:32:42;;;;;;;17.40;12.38;;;;;;;10.29;69.31;100297.81;4956182;28;102210;-48
2022/01/10 03:35:09;;;;;;;16.20;11.50;;;;;;;10.28;69.92;100293.47;4942347;28;103422;-48
2022/01/10 03:37:36;;;;;;;15.68;11.77;;;;;;;10.29;69.55;100299.72;4938366;28;102422;-48
2022/01/10 03:40:04;;;;;;;15.18;11.85;;;;;;;10.28;69.42;100298.91;4941929;28;103629;-48
2022/01/10 03:42:31;;;;;;;14.15;11.30;;;;;;;10.28;69.63;100304.34;4942822;28;102298;-48
2022/01/10 03:44:57;;;;;;;15.40;11.98;;;;;;;10.29;69.35;100305.97;4948354;28;102436;-48
2022/01/10 03:47:25;;;;;;;14.57;11.48;;;;;;;10.28;69.33;100309.81;4955171;28;102299;-49
2022/01/10 03:49:51;;;;;;;15.68;11.98;;;;;;;10.28;69.38;100309.81;4939626;28;103926;-47
2022/01/10 03:52:18;;;;;;;15.90;11.32;;;;;;;10.29;69.28;100305.97;4932046;28;102164;-48
2022/01/10 03:54:44;;;;;;;15.55;11.18;;;;;;;10.28;69.07;100309.81;4929824;28;102160;-48
2022/01/10 03:57:11;;;;;;;15.45;12.00;;;;;;;10.28;69.47;100317.97;4936672;28;102738;-49
2022/01/10 03:59:37;;;;;;;17.13;12.95;;;;;;;10.28;69.48;100309.00;4937531;28;103844;-47
2022/01/10 04:02:04;;;;;;;14.52;10.60;;;;;;;10.29;69.61;100316.84;4937951;28;102070;-48
2022/01/10 04:04:35;;;;;;;14.77;10.93;;;;;;;10.28;68.98;100312.50;4938656;28;102333;-49
2022/01/10 04:07:02;;;;;;;13.93;10.73;;;;;;;10.28;69.83;100320.69;4939233;28;102392;-46
2022/01/10 04:09:28;;;;;;;15.35;10.68;;;;;;;10.29;69.62;100324.22;4938802;28;104049;-48
2022/01/10 04:11:55;;;;;;;15.20;11.20;;;;;;;10.28;69.23;100328.84;4939164;28;101954;-49
2022/01/10 04:14:22;;;;;;;15.73;11.23;;;;;;;10.28;69.54;100331.56;4937445;28;102443;-48
2022/01/10 04:16:48;;;;;;;15.48;11.13;;;;;;;10.27;69.70;100340.78;4939178;28;102317;-47
2022/01/10 04:19:15;;;;;;;14.73;11.25;;;;;;;10.29;69.63;100340.53;4936149;28;103957;-47
2022/01/10 04:21:42;;;;;;;13.63;10.45;;;;;;;10.29;69.55;100345.97;4944391;28;102137;-48
2022/01/10 04:24:09;;;;;;;12.60;10.48;;;;;;;10.29;69.47;100348.69;4938831;28;102642;-47
2022/01/10 04:26:36;;;;;;;15.40;10.95;;;;;;;10.28;69.55;100347.88;4937763;28;102590;-48
2022/01/10 04:29:02;;;;;;;14.45;11.30;;;;;;;10.27;69.94;100351.66;4936571;28;104061;-48
2022/01/10 04:31:29;;;;;;;16.02;11.55;;;;;;;10.29;68.93;100357.66;4945948;28;102272;-48
2022/01/10 04:33:56;;;;;;;15.02;10.45;;;;;;;10.28;69.93;100352.50;4958121;28;102093;-47
2022/01/10 04:36:22;;;;;;;14.43;10.18;;;;;;;10.28;69.87;100353.31;4957793;28;104729;-49
2022/01/10 04:38:50;;;;;;;15.88;10.88;;;;;;;10.27;69.64;100362.53;4944023;28;103851;-49
2022/01/10 04:41:16;;;;;;;14.93;10.65;;;;;;;10.27;69.54;100359.81;4946296;28;102259;-48
2022/01/10 04:43:43;;;;;;;13.40;9.82;;;;;;;10.27;69.43;100365.25;4947075;28;102462;-48
2022/01/10 04:46:09;;;;;;;13.95;10.68;;;;;;;10.27;69.92;100378.88;4946611;28;102282;-48
2022/01/10 04:48:36;;;;;;;14.32;10.77;;;;;;;10.27;69.38;100376.16;4958071;28;103910;-49
2022/01/10 04:51:13;;;;;;;13.88;10.65;;;;;;;10.27;69.22;100373.41;4955467;28;102384;-48
2022/01/10 04:53:42;;;;;;;15.05;10.85;;;;;;;10.28;69.43;100374.25;4929257;28;102208;-49
2022/01/10 04:56:10;;;;;;;15.88;11.32;;;;;;;10.27;69.24;100380.78;4938697;28;102663;-48
2022/01/10 04:58:37;;;;;;;13.00;10.30;;;;;;;10.28;69.57;100383.22;4936303;28;104011;-48
2022/01/10 05:01:05;;;;;;;13.13;9.70;;;;;;;10.28;69.54;100380.50;4936907;28;102317;-48
2022/01/10 05:03:31;;;;;;;13.77;10.93;;;;;;;10.27;69.60;100378.06;4938427;28;102198;-48
2022/01/10 05:05:58;;;;;;;13.20;10.05;;;;;;;10.28;69.28;100379.69;4938333;28;102308;-47
2022/01/10 05:08:25;;;;;;;14.52;10.48;;;;;;;10.27;69.79;100378.06;4943700;28;103965;-46
2022/01/10 05:10:52;;;;;;;13.00;9.75;;;;;;;10.27;69.22;100383.50;4938299;28;102062;-47
2022/01/10 05:13:20;;;;;;;14.85;10.43;;;;;;;10.27;69.67;100387.03;4936137;28;102195;-48
2022/01/10 05:15:49;;;;;;;10.03;7.70;;;;;;;10.27;69.07;100383.50;4939018;28;102625;-47
2022/01/10 05:18:15;;;;;;;12.93;10.03;;;;;;;10.26;69.06;100393.56;4937577;28;103913;-48
2022/01/10 05:20:42;;;;;;;13.57;9.90;;;;;;;10.27;69.30;100395.19;4937619;28;102271;-47
2022/01/10 05:23:08;;;;;;;13.73;10.68;;;;;;;10.27;69.70;100403.34;4936503;28;102184;-48
2022/01/10 05:25:39;;;;;;;13.88;10.10;;;;;;;10.27;69.11;100405.25;4938334;28;102224;-48
2022/01/10 05:28:07;;;;;;;12.90;9.70;;;;;;;10.27;69.01;100406.06;4937571;28;103965;-47
2022/01/10 05:30:35;;;;;;;12.05;9.30;;;;;;;10.27;69.24;100405.25;4937176;28;101900;-48
2022/01/10 05:33:01;;;;;;;13.23;9.98;;;;;;;10.26;69.84;100404.44;4937055;28;102309;-46
2022/01/10 05:35:27;;;;;;;13.25;9.88;;;;;;;10.25;69.74;100408.25;4937157;28;102550;-49
2022/01/10 05:37:53;;;;;;;11.90;9.13;;;;;;;10.26;69.94;100409.06;4936459;28;104125;-47
2022/01/10 05:40:20;;;;;;;14.43;9.30;;;;;;;10.26;69.11;100418.03;4930404;28;102381;-48
2022/01/10 05:42:47;;;;;;;13.98;9.73;;;;;;;10.27;69.71;100427.00;4934122;28;102460;-48
2022/01/10 05:45:13;;;;;;;14.07;9.65;;;;;;;10.26;69.39;100428.91;4937942;28;102210;-48
2022/01/10 05:47:43;;;;;;;13.15;9.68;;;;;;;10.26;69.70;100439.78;4933498;28;103697;-48
2022/01/10 05:50:11;;;;;;;11.40;8.88;;;;;;;10.26;69.04;100442.53;4928036;28;103689;-49
2022/01/10 05:52:38;;;;;;;9.10;7.10;;;;;;;10.26;69.86;100447.97;4936036;28;102181;-48
2022/01/10 05:55:06;;;;;;;13.30;9.52;;;;;;;10.26;69.51;100447.97;4935016;28;102669;-46
2022/01/10 05:57:34;;;;;;;13.15;9.60;;;;;;;10.26;69.34;100455.31;4934285;28;103893;-48
2022/01/10 06:00:00;;;;;;;12.55;9.10;;;;;;;10.26;69.63;100449.88;4936097;28;102451;-47
2022/01/10 06:02:27;;;;;;;11.80;9.02;;;;;;;10.25;69.74;100446.34;4931952;28;102422;-48
2022/01/10 06:04:57;;;;;;;13.02;9.25;;;;;;;10.27;69.19;100451.50;4934653;28;102582;-48
2022/01/10 06:07:23;;;;;;;12.50;9.10;;;;;;;10.27;69.55;100456.94;4930462;28;103784;-49
2022/01/10 06:09:50;;;;;;;12.85;8.93;;;;;;;10.27;69.52;100460.47;4933538;28;102501;-48
2022/01/10 06:12:16;;;;;;;13.55;9.85;;;;;;;10.27;69.08;100459.66;4929584;28;102103;-48
2022/01/10 06:14:43;;;;;;;13.32;9.63;;;;;;;10.27;69.35;100460.47;4937247;28;104242;-47
2022/01/10 06:17:10;;;;;;;12.65;9.70;;;;;;;10.26;69.57;100464.28;4928272;28;104030;-48
2022/01/10 06:19:37;;;;;;;13.15;9.98;;;;;;;10.27;69.92;100468.63;4926060;28;102087;-48
2022/01/10 06:22:05;;;;;;;13.45;9.73;;;;;;;10.27;69.60;100476.78;4928264;28;102611;-46
2022/01/10 06:24:32;;;;;;;14.85;10.30;;;;;;;10.28;69.27;100483.88;4936035;28;102494;-48
2022/01/10 06:26:58;;;;;;;11.52;8.73;;;;;;;10.28;69.63;100478.44;4935684;28;103721;-55
2022/01/10 06:29:24;;;;;;;13.48;9.73;;;;;;;10.27;69.81;100487.66;4946748;28;102277;-47
2022/01/10 06:31:51;;;;;;;13.02;9.85;;;;;;;10.29;69.47;100490.94;4951651;28;102313;-46
2022/01/10 06:34:18;;;;;;;13.20;9.52;;;;;;;10.29;69.19;100496.38;4965872;28;102524;-54
2022/01/10 06:36:45;;;;;;;11.38;9.43;;;;;;;10.29;69.71;100499.09;4952723;28;103831;-49
2022/01/10 06:39:13;;;;;;;12.88;9.40;;;;;;;10.28;69.29;100489.31;4936151;28;102121;-46
2022/01/10 06:41:40;;;;;;;13.18;10.05;;;;;;;10.29;69.74;100501.81;4963141;28;102107;-49
2022/01/10 06:44:06;;;;;;;12.55;9.70;;;;;;;10.29;69.28;100507.25;4958549;28;102658;-46
2022/01/10 06:46:33;;;;;;;13.88;10.27;;;;;;;10.29;69.38;100507.25;4947573;28;104091;-48
2022/01/10 06:48:59;;;;;;;12.98;10.05;;;;;;;10.29;69.53;100512.69;4941411;28;102258;-47
2022/01/10 06:51:26;;;;;;;11.50;8.35;;;;;;;10.30;69.41;100516.22;4936318;28;102414;-48
2022/01/10 06:53:52;;;;;;;10.57;8.45;;;;;;;10.30;69.09;100513.50;4938720;28;102775;-48
2022/01/10 06:56:20;;;;;;;13.13;9.35;;;;;;;10.29;69.63;100518.13;4952779;28;103938;-47
2022/01/10 06:58:46;;;;;;;12.68;9.45;;;;;;;10.29;69.41;100518.13;4959979;28;102611;-48
2022/01/10 07:01:17;;;;;;;12.43;9.40;;;;;;;10.29;69.12;100518.13;4954725;28;102204;-47
2022/01/10 07:03:44;;;;;;;12.90;9.10;;;;;;;10.29;69.50;100522.75;4945798;28;102136;-47
2022/01/10 07:06:11;;;;;;;11.85;9.25;;;;;;;10.29;69.12;100529.00;4916066;28;103915;-48
2022/01/10 07:08:37;;;;;;;12.07;9.27;;;;;;;10.29;69.71;100534.44;4936734;28;103523;-46
2022/01/10 07:11:03;;;;;;;11.38;9.02;;;;;;;10.29;69.66;100539.88;4940824;28;102045;-49
2022/01/10 07:13:31;;;;;;;11.07;9.10;;;;;;;10.30;69.00;100535.25;4956221;28;102433;-47
2022/01/10 07:15:58;;;;;;;11.07;8.40;;;;;;;10.30;69.98;100535.25;4936518;28;103984;-48
2022/01/10 07:18:24;;;;;;;11.57;8.80;;;;;;;10.29;69.93;100542.59;4934585;28;102286;-48
2022/01/10 07:20:51;;;;;;;11.52;8.63;;;;;;;10.29;69.35;100539.88;4936859;28;102091;-48
2022/01/10 07:23:17;;;;;;;10.93;8.52;;;;;;;10.30;69.27;100541.50;4935694;28;102162;-49
2022/01/10 07:25:43;;;;;;;12.60;9.32;;;;;;;10.29;69.23;100542.59;4936266;28;104029;-48
2022/01/10 07:28:10;;;;;;;11.63;8.02;;;;;;;10.30;69.32;100536.06;4936010;28;102134;-48
2022/01/10 07:30:37;;;;;;;11.82;8.45;;;;;;;10.28;69.10;100532.81;4938348;28;102030;-49
2022/01/10 07:33:04;;;;;;;11.55;8.55;;;;;;;10.29;69.59;100537.16;4941739;28;102178;-49
2022/01/10 07:35:30;;;;;;;11.80;8.48;;;;;;;10.29;69.35;100539.88;4940531;28;103864;-49
2022/01/10 07:37:56;;;;;;;11.88;8.77;;;;;;;10.29;69.67;100545.31;4938255;28;102048;-47
2022/01/10 07:40:24;;;;;;;11.07;8.15;;;;;;;10.28;69.92;100538.25;4940476;28;103647;-48
2022/01/10 07:42:51;;;;;;;10.40;8.07;;;;;;;10.30;69.66;100546.94;4939070;28;102363;-48
2022/01/10 07:45:18;;;;;;;9.82;7.32;;;;;;;10.28;69.37;100546.44;4948807;28;103855;-48
2022/01/10 07:47:46;;;;;;;9.93;7.80;;;;;;;10.29;69.45;100549.97;4941804;28;102837;-48
2022/01/10 07:50:12;;;;;;;10.07;7.47;;;;;;;10.28;69.41;100546.44;4938371;28;102013;-49
2022/01/10 07:52:38;;;;;;;10.98;8.10;;;;;;;10.28;69.73;100549.16;4941189;28;102206;-48
2022/01/10 07:55:06;;;;;;;11.90;8.23;;;;;;;10.28;69.29;100560.03;4936163;28;103718;-47
2022/01/10 07:57:35;;;;;;;10.68;8.18;;;;;;;10.28;69.17;100557.31;4932323;28;102599;-47
2022/01/10 08:00:03;;;;;;;10.98;8.20;;;;;;;10.28;69.81;100551.06;4935463;28;102046;-48
2022/01/10 08:02:30;;;;;;;10.25;7.43;;;;;;;10.27;69.81;100542.06;4937351;28;102376;-49
2022/01/10 08:04:58;;;;;;;10.35;7.75;;;;;;;10.28;69.05;100545.63;4938538;28;102718;-47
2022/01/10 08:07:24;;;;;;;9.38;7.32;;;;;;;10.28;69.66;100543.72;4933099;28;103649;-46
2022/01/10 08:09:51;;;;;;;8.68;7.22;;;;;;;10.28;68.99;100538.25;4936226;28;104459;-48
2022/01/10 08:12:17;;;;;;;8.35;6.65;;;;;;;10.29;69.42;100539.06;4936213;28;102390;-47
2022/01/10 08:14:43;;;;;;;9.57;6.57;;;;;;;10.28;69.14;100537.47;4940211;28;103947;-45
2022/01/10 08:17:10;;;;;;;9.18;7.43;;;;;;;10.28;69.57;100538.25;4936320;28;102555;-49
2022/01/10 08:19:36;;;;;;;8.40;6.88;;;;;;;10.28;69.12;100538.25;4941299;28;102281;-45
2022/01/10 08:22:04;;;;;;;8.90;6.93;;;;;;;10.27;69.28;100547.50;4937709;28;102155;-49
2022/01/10 08:24:32;;;;;;;9.45;7.22;;;;;;;10.27;69.25;100550.22;4945295;28;103998;-48
2022/01/10 08:26:58;;;;;;;8.40;6.90;;;;;;;10.28;69.24;100554.59;4954954;28;102169;-47
2022/01/10 08:29:25;;;;;;;8.43;6.28;;;;;;;10.27;69.05;100550.22;4949577;28;102240;-46
2022/01/10 08:31:51;;;;;;;7.63;6.32;;;;;;;10.28;69.51;100554.59;4939351;28;102325;-48
2022/01/10 08:34:18;;;;;;;8.43;7.07;;;;;;;10.27;69.41;100546.69;4934925;28;103940;-49
2022/01/10 08:36:45;;;;;;;7.38;6.00;;;;;;;10.28;69.36;100534.72;4945541;28;102440;-48
2022/01/10 08:39:13;;;;;;;7.35;6.20;;;;;;;10.27;69.38;100536.63;4954418;28;102496;-47
2022/01/10 08:41:39;;;;;;;9.00;7.00;;;;;;;10.26;69.28;100548.59;4958643;28;102252;-48
2022/01/10 08:44:06;;;;;;;8.65;6.68;;;;;;;10.27;69.05;100547.50;4956457;28;103697;-48
2022/01/10 08:46:34;;;;;;;8.18;6.70;;;;;;;10.28;69.24;100543.72;4945223;28;102352;-49
2022/01/10 08:49:01;;;;;;;7.75;5.82;;;;;;;10.27;69.42;100544.78;4954992;28;102660;-47
2022/01/10 08:51:32;;;;;;;9.40;6.47;;;;;;;10.27;69.46;100546.69;4951208;28;102247;-48
2022/01/10 08:53:59;;;;;;;7.28;5.95;;;;;;;10.27;69.80;100552.13;4955172;28;103900;-48
2022/01/10 08:56:27;;;;;;;7.13;5.78;;;;;;;10.27;69.78;100546.69;4947902;28;104016;-47
2022/01/10 08:58:53;;;;;;;7.38;5.78;;;;;;;10.26;68.99;100543.16;4952097;28;103670;-47
2022/01/10 09:01:21;;;;;;;7.05;5.93;;;;;;;10.27;69.24;100546.69;4954801;28;103480;-48
2022/01/10 09:03:48;;;;;;;6.07;5.32;;;;;;;10.26;69.12;100554.03;4955838;28;103909;-47
2022/01/10 09:06:14;;;;;;;7.03;5.65;;;;;;;10.26;69.28;100551.31;4954369;28;102315;-48
2022/01/10 09:08:43;;;;;;;6.72;5.85;;;;;;;10.25;69.28;100554.28;4951200;28;102553;-47
2022/01/10 09:11:10;;;;;;;6.97;5.83;;;;;;;10.25;69.54;100555.13;4954514;28;102291;-48
2022/01/10 09:13:38;;;;;;;6.50;5.45;;;;;;;10.25;69.53;100560.56;4954551;28;103999;-48
2022/01/10 09:16:06;;;;;;;6.82;5.70;;;;;;;10.24;69.29;100553.47;4951677;28;102250;-47
2022/01/10 09:18:33;;;;;;;7.60;5.95;;;;;;;10.25;69.51;100555.13;4955092;28;102215;-47
2022/01/10 09:20:59;;;;;;;6.07;4.97;;;;;;;10.25;69.05;100560.56;4954663;28;102200;-48
2022/01/10 09:23:26;;;;;;;6.13;5.03;;;;;;;10.24;69.75;100550.75;4951316;28;103930;-48
2022/01/10 09:25:53;;;;;;;6.22;4.68;;;;;;;10.26;68.91;100562.19;4949538;28;104649;-49
2022/01/10 09:28:20;;;;;;;6.65;5.10;;;;;;;10.24;69.66;100550.75;4958834;28;102503;-46
2022/01/10 09:30:48;;;;;;;6.05;5.45;;;;;;;10.24;69.23;100563.50;4948529;28;102646;-46
2022/01/10 09:33:15;;;;;;;6.07;5.18;;;;;;;10.24;68.79;100561.63;4949669;28;104656;-46
2022/01/10 09:35:43;;;;;;;7.07;5.40;;;;;;;10.24;69.59;100563.50;4947470;28;102347;-48
2022/01/10 09:38:09;;;;;;;6.82;5.32;;;;;;;10.23;69.34;100559.97;4935689;28;102387;-49
2022/01/10 09:40:36;;;;;;;6.05;4.93;;;;;;;10.23;69.42;100565.41;4935774;28;102672;-47
2022/01/10 09:43:03;;;;;;;6.07;4.85;;;;;;;10.23;69.53;100561.88;4931885;28;103849;-46
2022/01/10 09:45:30;;;;;;;6.30;5.32;;;;;;;10.23;69.44;100562.69;4953118;28;102524;-46
2022/01/10 09:48:00;;;;;;;5.47;4.72;;;;;;;10.24;69.72;100566.22;4931033;28;102276;-48
2022/01/10 09:50:27;;;;;;;4.95;4.30;;;;;;;10.23;69.20;100564.59;4935929;28;102263;-48
2022/01/10 09:52:55;;;;;;;5.53;5.00;;;;;;;10.22;69.77;100571.94;4930481;28;104722;-48
2022/01/10 09:55:21;;;;;;;5.75;4.95;;;;;;;10.21;69.01;100578.50;4951588;28;102201;-49
2022/01/10 09:57:48;;;;;;;5.72;5.05;;;;;;;10.21;69.13;100578.50;4929651;28;102411;-47
2022/01/10 10:00:17;;;;;;;5.55;4.82;;;;;;;10.21;69.39;100581.22;4934300;28;102625;-46
2022/01/10 10:02:43;;;;;;;8.07;5.00;;;;;;;10.22;69.74;100577.41;4935226;28;103986;-48
2022/01/10 10:05:12;;;;;;;6.30;4.88;;;;;;;10.21;69.24;100580.41;4937644;28;102428;-47
2022/01/10 10:07:39;;;;;;;;;;;;;;;10.20;68.80;100574.13;4931106;28;102383;-48
2022/01/10 10:10:11;;;;;;;5.18;4.40;;;;;;;10.20;68.79;100582.28;4930368;28;102886;-47
2022/01/10 10:12:39;;;;;;;5.45;4.50;;;;;;;10.20;69.32;100579.56;4929426;28;104124;-48
2022/01/10 10:15:08;;;;;;;5.90;4.80;;;;;;;10.21;69.29;100583.13;4931025;28;102358;-48
2022/01/10 10:17:36;;;;;;;6.72;4.30;;;;;;;10.20;68.90;100585.00;4932525;28;102108;-49
2022/01/10 10:20:06;;;;;;;7.38;4.90;;;;;;;10.20;68.92;100582.28;4934851;28;102338;-47
2022/01/10 10:22:38;;;;;;;5.03;4.53;;;;;;;10.20;69.40;100579.56;4930933;28;103772;-48
2022/01/10 10:25:05;;;;;;;5.03;4.53;;;;;;;10.19;69.60;100577.94;4938489;28;102463;-47
2022/01/10 10:27:36;;;;;;;5.22;4.45;;;;;;;10.19;68.99;100572.50;4933150;28;102103;-48
2022/01/10 10:30:04;;;;;;;6.65;4.50;;;;;;;10.19;69.18;100572.50;4930601;28;102086;-48
2022/01/10 10:32:31;;;;;;;6.10;4.65;;;;;;;10.20;69.33;100567.88;4933885;28;103879;-48
2022/01/10 10:34:58;;;;;;;6.57;4.38;;;;;;;10.19;69.40;100555.38;4922779;28;102564;-49
2022/01/10 10:37:27;;;;;;;5.55;4.45;;;;;;;10.19;69.57;100561.63;4947624;28;103089;-48
2022/01/10 10:39:55;;;;;;;;;;;;;;;10.18;68.92;100560.00;4946637;28;102428;-49
2022/01/10 10:42:24;;;;;;;4.78;4.25;;;;;;;10.18;69.31;100565.44;4935237;28;104169;-46
2022/01/10 10:44:50;;;;;;;;;;;;;;;10.19;69.33;100574.41;4934512;28;103586;-47
2022/01/10 10:47:18;;;;;;;5.18;4.30;;;;;;;10.18;69.08;100576.31;4942729;28;103666;-47
2022/01/10 10:49:50;;;;;;;4.97;4.47;;;;;;;10.17;69.23;100574.69;4940834;28;102697;-48
2022/01/10 10:52:16;;;;;;;8.57;4.13;;;;;;;10.19;69.07;100583.38;4931671;28;103896;-48
2022/01/10 10:54:43;;;;;;;5.00;3.90;;;;;;;10.19;69.00;100586.09;4940880;28;102223;-49
2022/01/10 10:57:14;;;;;;;4.35;3.95;;;;;;;10.19;69.39;100591.53;4938185;28;102284;-49
2022/01/10 10:59:43;;;;;;;5.25;4.32;;;;;;;10.20;69.02;100595.06;4935442;28;102368;-48
2022/01/10 11:02:11;;;;;;;4.80;3.70;;;;;;;10.19;68.83;100599.69;4946211;28;103787;-49
2022/01/10 11:04:37;;;;;;;4.28;3.75;;;;;;;10.21;69.68;100613.03;4950195;28;102433;-49
2022/01/10 11:07:04;;;;;;;4.53;3.60;;;;;;;10.21;68.78;100604.88;4954220;28;102220;-46
2022/01/10 11:09:31;;;;;;;4.43;3.67;;;;;;;10.20;69.20;100609.47;4959934;28;102390;-48
2022/01/10 11:11:59;;;;;;;4.28;3.70;;;;;;;10.21;69.65;100605.69;4945334;28;104075;-49
2022/01/10 11:14:27;;;;;;;4.65;4.25;;;;;;;10.21;69.50;100602.97;4932999;28;104850;-47
2022/01/10 11:16:54;;;;;;;4.47;3.70;;;;;;;10.22;69.31;100610.03;4952528;28;102669;-48